createdAt,value
2023-06-22T00:04:03.151Z,10.6
2023-06-22T00:09:09.258Z,10.6
2023-06-22T00:14:17.217Z,10.6
2023-06-22T00:19:23.372Z,10.4
2023-06-22T00:24:31.376Z,10.4
2023-06-22T00:34:47.245Z,10.4
2023-06-22T00:39:55.191Z,10.4
2023-06-22T00:45:03.132Z,10.4
2023-06-22T00:50:11.115Z,10.4
2023-06-22T00:55:19.065Z,10.4
2023-06-22T01:00:27.390Z,10.4
2023-06-22T01:05:34.945Z,10.4
2023-06-22T01:10:42.892Z,10.4
2023-06-22T01:15:50.859Z,10.4
2023-06-22T01:20:58.857Z,10.4
2023-06-22T01:26:06.788Z,10.4
2023-06-22T01:31:14.767Z,10.4
2023-06-22T01:36:22.683Z,10.2
2023-06-22T01:46:38.579Z,10.2
2023-06-22T01:51:46.531Z,10.2
2023-06-22T01:56:54.473Z,10.2
2023-06-22T02:07:10.373Z,10.2
2023-06-22T02:12:18.329Z,10.2
2023-06-22T02:17:26.303Z,10.2
2023-06-22T02:22:34.259Z,10.2
2023-06-22T02:27:42.201Z,10.2
2023-06-22T02:32:50.246Z,10.2
2023-06-22T02:37:58.108Z,10.2
2023-06-22T02:43:06.075Z,10.2
2023-06-22T02:48:12.242Z,10.2
2023-06-22T02:53:20.182Z,10.2
2023-06-22T02:58:26.357Z,10.1
2023-06-22T03:03:34.487Z,10.1
2023-06-22T03:08:40.394Z,10.1
2023-06-22T03:13:48.419Z,10
2023-06-22T03:18:54.606Z,10
2023-06-22T03:24:02.564Z,10
2023-06-22T03:29:08.695Z,10
2023-06-22T03:34:16.662Z,10
2023-06-22T03:39:24.626Z,10
2023-06-22T03:44:32.563Z,10
2023-06-22T03:49:38.742Z,9.9
2023-06-22T03:54:45.082Z,9.9
2023-06-22T03:59:52.857Z,9.9
2023-06-22T04:05:00.413Z,9.9
2023-06-22T04:10:06.991Z,9.9
2023-06-22T04:15:14.890Z,9.9
2023-06-22T04:20:21.071Z,9.9
2023-06-22T04:25:27.249Z,9.9
2023-06-22T04:30:35.209Z,9.7
2023-06-22T04:35:43.158Z,9.7
2023-06-22T04:40:51.105Z,9.7
2023-06-22T04:45:59.065Z,9.7
2023-06-22T04:51:07.012Z,9.7
2023-06-22T04:56:14.969Z,9.6
2023-06-22T05:01:22.926Z,9.6
2023-06-22T05:06:30.866Z,9.4
2023-06-22T05:11:38.780Z,9.3
2023-06-22T05:16:46.724Z,9.3
2023-06-22T05:21:54.754Z,9.3
2023-06-22T05:27:02.714Z,9.4
2023-06-22T05:32:10.651Z,9.4
2023-06-22T05:37:18.587Z,9.4
2023-06-22T05:42:26.562Z,9.3
2023-06-22T05:52:42.473Z,9.3
2023-06-22T05:57:50.347Z,9.3
2023-06-22T06:02:58.404Z,9.3
2023-06-22T06:08:06.337Z,9.2
2023-06-22T06:13:14.324Z,9.2
2023-06-22T06:18:22.221Z,9.3
2023-06-22T06:23:30.181Z,9.3
2023-06-22T06:28:38.171Z,9.3
2023-06-22T06:33:46.090Z,9.3
2023-06-22T06:38:54.059Z,9.5
2023-06-22T06:44:02.047Z,9.5
2023-06-22T06:49:09.968Z,9.5
2023-06-22T06:54:17.945Z,9.5
2023-06-22T07:04:32.068Z,9.5
2023-06-22T07:09:38.215Z,9.5
2023-06-22T07:14:46.195Z,9.5
2023-06-22T07:19:52.329Z,9.4
2023-06-22T07:25:00.270Z,9.2
2023-06-22T07:30:06.453Z,9.1
2023-06-22T07:35:14.412Z,9.2
2023-06-22T07:40:22.334Z,9.2
2023-06-22T07:45:28.553Z,9.2
2023-06-22T07:50:34.648Z,9.2
2023-06-22T07:55:42.615Z,9.2
2023-06-22T08:00:50.499Z,9.1
2023-06-22T08:05:56.727Z,9.2
2023-06-22T08:11:04.682Z,9.2
2023-06-22T08:16:12.651Z,9.4
2023-06-22T08:21:20.610Z,9.3
2023-06-22T08:26:28.535Z,9.4
2023-06-22T08:31:36.550Z,9.4
2023-06-22T08:36:44.390Z,9.1
2023-06-22T08:41:52.346Z,9.1
2023-06-22T08:47:00.338Z,9.1
2023-06-22T08:52:08.335Z,9
2023-06-22T08:57:16.254Z,9
2023-06-22T09:02:24.241Z,9
2023-06-22T09:07:32.183Z,8.9
2023-06-22T09:12:40.098Z,8.9
2023-06-22T09:17:48.354Z,8.9
2023-06-22T09:22:56.032Z,8.9
2023-06-22T09:28:03.987Z,8.9
2023-06-22T09:33:12.052Z,8.9
2023-06-22T09:38:19.942Z,8.9
2023-06-22T09:43:27.838Z,9
2023-06-22T09:48:35.781Z,9
2023-06-22T09:53:43.753Z,9
2023-06-22T09:58:53.031Z,9.1
2023-06-22T10:03:59.828Z,9.1
2023-06-22T10:09:07.633Z,9.1
2023-06-22T10:14:15.575Z,9.3
2023-06-22T10:19:23.521Z,9.3
2023-06-22T10:24:31.474Z,9.3
2023-06-22T10:34:47.369Z,9.4
2023-06-22T10:39:55.325Z,9.4
2023-06-22T10:45:03.225Z,9.6
2023-06-22T10:50:11.199Z,9.6
2023-06-22T10:55:19.192Z,9.6
2023-06-22T11:00:27.125Z,9.6
2023-06-22T11:05:35.108Z,9.7
2023-06-22T11:10:43.055Z,9.7
2023-06-22T11:15:50.999Z,9.7
2023-06-22T11:20:57.163Z,9.7
2023-06-22T11:26:05.104Z,9.7
2023-06-22T11:36:20.965Z,9.5
2023-06-22T11:46:36.937Z,9.5
2023-06-22T11:51:44.865Z,9.4
2023-06-22T11:56:52.806Z,9.4
2023-06-22T12:02:00.816Z,9.3
2023-06-22T12:07:08.714Z,9.1
2023-06-22T12:12:14.866Z,9.1
2023-06-22T12:17:22.828Z,9.1
2023-06-22T12:22:28.992Z,9.1
2023-06-22T12:27:36.922Z,9.1
2023-06-22T12:37:51.060Z,9
2023-06-22T12:42:59.008Z,9
2023-06-22T12:48:07.036Z,9
2023-06-22T12:53:14.906Z,8.8
2023-06-22T12:58:22.852Z,8.8
2023-06-22T13:03:30.848Z,8.8
2023-06-22T13:13:46.760Z,9
2023-06-22T13:18:54.702Z,8.8
2023-06-22T13:24:02.633Z,8.8
2023-06-22T13:29:10.588Z,8.8
2023-06-22T13:34:18.546Z,8.8
2023-06-22T13:39:26.510Z,8.8
2023-06-22T13:49:42.390Z,8.9
2023-06-22T13:54:50.352Z,9
2023-06-22T14:05:06.245Z,9
2023-06-22T14:10:14.216Z,9
2023-06-22T14:15:22.180Z,9
2023-06-22T14:20:30.575Z,9
2023-06-22T14:25:38.115Z,9.2
2023-06-22T14:30:46.017Z,9.2
2023-06-22T14:35:53.998Z,9.2
2023-06-22T14:41:13.665Z,9.2
2023-06-22T14:46:09.913Z,9.3
2023-06-22T14:51:18.097Z,9.3
2023-06-22T14:56:25.803Z,9.3
2023-06-22T15:01:33.775Z,9.3
2023-06-22T15:06:41.716Z,9.3
2023-06-22T15:11:49.647Z,9.3
2023-06-22T15:16:57.605Z,9.3
2023-06-22T15:22:05.584Z,9.3
2023-06-22T15:27:13.500Z,9.3
2023-06-22T15:32:21.462Z,9.3
2023-06-22T15:37:29.395Z,9.3
2023-06-22T15:42:35.579Z,9.3
2023-06-22T15:47:43.605Z,9.3
2023-06-22T15:52:49.684Z,9.3
2023-06-22T15:57:57.650Z,9.3
2023-06-22T16:03:05.662Z,9.3
2023-06-22T16:08:13.531Z,9.3
2023-06-22T16:13:19.683Z,9.3
2023-06-22T16:18:27.653Z,9.3
2023-06-22T16:23:35.604Z,9.3
2023-06-22T16:28:43.553Z,9.3
2023-06-22T16:33:51.484Z,9.3
2023-06-22T16:38:59.475Z,9.1
2023-06-22T16:44:07.422Z,9.1
2023-06-22T16:49:15.356Z,9
2023-06-22T16:54:23.309Z,9
2023-06-22T16:59:31.275Z,9
2023-06-22T17:04:39.236Z,9
2023-06-22T17:09:47.196Z,8.9
2023-06-22T17:14:55.119Z,8.9
2023-06-22T17:20:03.108Z,8.8
2023-06-22T17:25:11.033Z,8.9
2023-06-22T17:30:19.255Z,8.9
2023-06-22T17:35:26.987Z,8.8
2023-06-22T17:40:35.164Z,8.8
2023-06-22T17:45:42.987Z,8.8
2023-06-22T17:50:50.816Z,8.8
2023-06-22T17:55:58.768Z,8.8
2023-06-22T18:01:06.726Z,8.8
2023-06-22T18:06:14.696Z,8.8
2023-06-22T18:11:22.612Z,8.8
2023-06-22T18:16:30.574Z,8.8
2023-06-22T18:21:38.555Z,8.8
2023-06-22T18:26:46.497Z,8.8
2023-06-22T18:31:54.461Z,8.8
2023-06-22T18:37:02.395Z,8.8
2023-06-22T18:42:10.349Z,8.8
2023-06-22T18:47:18.311Z,8.8
2023-06-22T18:52:26.279Z,8.8
2023-06-22T18:57:34.222Z,8.8
2023-06-22T19:02:42.269Z,8.7
2023-06-22T19:07:50.133Z,8.7
2023-06-22T19:12:58.075Z,8.6
2023-06-22T19:23:13.986Z,8.6
2023-06-22T19:28:21.928Z,8.6
2023-06-22T19:33:29.892Z,8.5
2023-06-22T19:38:37.828Z,8.6
2023-06-22T19:43:45.817Z,8.5
2023-06-22T19:48:53.786Z,8.5
2023-06-22T19:53:59.936Z,8.5
2023-06-22T19:59:07.885Z,8.5
2023-06-22T20:04:15.821Z,8.5
2023-06-22T20:09:23.793Z,8.4
2023-06-22T20:14:31.734Z,8.4
2023-06-22T20:19:39.644Z,8.4
2023-06-22T20:24:47.625Z,8.4
2023-06-22T20:29:53.811Z,8.4
2023-06-22T20:35:01.748Z,8.4
2023-06-22T20:40:09.704Z,8.4
2023-06-22T20:45:17.676Z,8.4
2023-06-22T20:50:25.626Z,8.4
2023-06-22T20:55:33.876Z,8.4
2023-06-22T21:00:41.498Z,8.4
2023-06-22T21:05:49.509Z,8.4
2023-06-22T21:10:57.447Z,8.4
2023-06-22T21:16:05.401Z,8.4
2023-06-22T21:21:13.347Z,8.5
2023-06-22T21:26:21.285Z,8.4
2023-06-22T21:31:29.287Z,8.4
2023-06-22T21:36:37.206Z,8.4
2023-06-22T21:41:45.156Z,8.4
2023-06-22T21:46:53.039Z,8.4
2023-06-22T21:52:01.260Z,8.4
2023-06-22T21:57:09.036Z,8.4
2023-06-22T22:02:16.988Z,8.4
2023-06-22T22:07:24.945Z,8.4
2023-06-22T22:12:32.858Z,8.4
2023-06-22T22:17:40.924Z,8.4
2023-06-22T22:22:48.805Z,8.3
2023-06-22T22:27:56.748Z,8.3
2023-06-22T22:33:04.736Z,8.3
2023-06-22T22:38:12.655Z,8.2
2023-06-22T22:43:20.568Z,8.2
2023-06-22T22:48:28.574Z,8.2
2023-06-22T22:53:36.539Z,8.2
2023-06-22T22:58:44.440Z,8.2
2023-06-22T23:03:52.407Z,8.2
2023-06-22T23:09:00.424Z,8.2
2023-06-22T23:14:08.313Z,8.2
2023-06-22T23:19:16.279Z,8.2
2023-06-22T23:24:24.228Z,8.2
2023-06-22T23:29:32.161Z,8.2
2023-06-22T23:34:40.142Z,8.2
2023-06-22T23:39:48.102Z,8.2
2023-06-22T23:44:56.077Z,8.2
2023-06-22T23:50:04.009Z,8.2
2023-06-22T23:55:12.321Z,8.2
